Garfield County Regional Airport
KRIL : rendu visible

Aérodrome :











RETROUVEZ-NOUS SUR...

 
LOGIN :

S'inscrire | Disclaimer

   EN    FR    IT 

 









Légende :    VFR   VFR Marginal   IFR   IFR Intensif   IFR Très Intensif
Visi : 
Plafond : 
>= 8 km
>= 3000ft
5 à 8 km
1000 à 3000 ft
1500m à 5 km
500 à 1000 ft
800 à 1500m
200 à 500 ft
< 800m
< 200 ft
Symboles :   Orages  Brouillard  Fortes neiges  Fortes précipitations  Vent > 20 kt






- Altitude de l'aérodrome : 5548 ft


KRIL - Garfield County Regional

DERNIER METAR :
  • 040753Z AUTO 11005KT 10SM CLR 16/01 A3008 RMK AO2 SLP107 T01560011

METARs EXPIRÉS :
  • 040653Z AUTO 16006KT 10SM CLR 17/03 A3009 RMK AO2 SLP111 T01670028 403330094
  • 040553Z AUTO 12007KT 10SM CLR 19/02 A3008 RMK AO2 SLP109 T01940022 10306 20189 50003

TAF KRIL
Valide du 04 à 06h jusqu'au 05 à 06h UTC


040528Z 0406/0506 VRB04KT P6SM SCT120
FM041200 VRB03KT P6SM FEW100
FM041800 28008KT P6SM FEW080
FM042100 27010G20KT P6SM SCT080 BKN150
FM050300 10008KT P6SM OVC150
FIR KZDV / Amérique du Nord



MET'MAP, la Météo Aéronautique d'un coup d'oeil ! - Copyright ORBIFLY Décembre 2007 - Disclaimer

ORBIFLY MET'MAP TEAM :

Programmation & Développement : Alexandra Zaïnal
Sur une idée originale de : Baudouin d'Aumeries
Assistance à la programmation : Marc-Olivier Méhu
Soutien technique & logistique : Manuel Goepfert

Contact : metmap@orbifly.com




SOURCES & CREDITS :

   NOAA       Earth
Advisory